Time;durP1;ratioP1;P1;durP2;ratioP2;P2;SDS_P1;SDS_P2;PMS_P1;PMS_P2;Temp;Humidity;BMP_temperature;BMP_pressure;BME280_temperature;BME280_humidity;BME280_pressure;Samples;Min_cycle;Max_cycle;Signal;HPM_P1;HPM_P2
2022/03/05 00:01:30;;;;;;;18.98;7.00;;;;;;;;;;5107929;27;20082;-85
2022/03/05 00:03:56;;;;;;;16.00;6.47;;;;;;;;;;5105611;27;20075;-85
2022/03/05 00:06:23;;;;;;;12.60;6.55;;;;;;;;;;5106809;27;20039;-85
2022/03/05 00:08:49;;;;;;;16.52;6.70;;;;;;;;;;5103584;27;20048;-85
2022/03/05 00:11:17;;;;;;;13.23;6.55;;;;;;;;;;5111531;27;20466;-85
2022/03/05 00:13:44;;;;;;;11.85;6.32;;;;;;;;;;5106555;28;20043;-85
2022/03/05 00:16:11;;;;;;;11.27;5.18;;;;;;;;;;5102567;28;20072;-85
2022/03/05 00:18:38;;;;;;;13.60;6.82;;;;;;;;;;5107382;27;20074;-85
2022/03/05 00:21:04;;;;;;;13.85;6.10;;;;;;;;;;5101217;27;20074;-85
2022/03/05 00:23:31;;;;;;;13.27;6.10;;;;;;;;;;5101026;28;20079;-85
2022/03/05 00:25:58;;;;;;;11.80;5.30;;;;;;;;;;5102884;28;20067;-85
2022/03/05 00:28:26;;;;;;;12.95;5.60;;;;;;;;;;5110590;28;20050;-85
2022/03/05 00:30:58;;;;;;;12.27;5.70;;;;;;;;;;5102002;28;20065;-85
2022/03/05 00:33:24;;;;;;;12.13;5.50;;;;;;;;;;5117122;27;20049;-85
2022/03/05 00:35:51;;;;;;;14.68;6.18;;;;;;;;;;5115505;27;20138;-85
2022/03/05 00:38:18;;;;;;;16.77;7.05;;;;;;;;;;5103667;28;20131;-85
2022/03/05 00:40:44;;;;;;;15.48;8.45;;;;;;;;;;5116306;27;20074;-84
2022/03/05 00:43:11;;;;;;;21.02;7.25;;;;;;;;;;5108123;27;20071;-84
2022/03/05 00:45:39;;;;;;;28.45;10.43;;;;;;;;;;5108047;27;20066;-84
2022/03/05 00:48:07;;;;;;;19.73;8.07;;;;;;;;;;5101456;27;20528;-84
2022/03/05 00:50:33;;;;;;;24.27;9.10;;;;;;;;;;5106728;27;20065;-84
2022/03/05 00:53:00;;;;;;;29.88;9.95;;;;;;;;;;5106771;27;20484;-84
2022/03/05 00:55:27;;;;;;;27.23;9.38;;;;;;;;;;5113682;28;20130;-84
2022/03/05 00:57:53;;;;;;;23.85;8.60;;;;;;;;;;5115182;28;20166;-84
2022/03/05 01:00:20;;;;;;;25.15;10.77;;;;;;;;;;5111768;28;20082;-85
2022/03/05 01:02:48;;;;;;;19.92;8.55;;;;;;;;;;5106477;28;20076;-85
2022/03/05 01:05:15;;;;;;;20.63;9.00;;;;;;;;;;5110995;28;20073;-85
2022/03/05 01:07:41;;;;;;;17.80;7.72;;;;;;;;;;5106429;28;20555;-85
2022/03/05 01:10:09;;;;;;;16.30;8.50;;;;;;;;;;5102867;28;20176;-85
2022/03/05 01:12:35;;;;;;;19.67;7.60;;;;;;;;;;5113619;28;20474;-85
2022/03/05 01:15:03;;;;;;;16.15;7.65;;;;;;;;;;5112552;28;20039;-85
2022/03/05 01:17:29;;;;;;;18.77;8.25;;;;;;;;;;5104554;28;20079;-84
2022/03/05 01:19:57;;;;;;;17.90;7.22;;;;;;;;;;5106033;28;20479;-84
2022/03/05 01:22:24;;;;;;;13.50;6.63;;;;;;;;;;5104677;28;20094;-84
2022/03/05 01:24:50;;;;;;;16.98;7.25;;;;;;;;;;5113291;28;20116;-84
2022/03/05 01:27:18;;;;;;;18.90;8.43;;;;;;;;;;5109195;28;20052;-84
2022/03/05 01:29:44;;;;;;;16.75;8.00;;;;;;;;;;5114864;28;20097;-84
2022/03/05 01:32:11;;;;;;;14.88;7.05;;;;;;;;;;5109550;28;20078;-84
2022/03/05 01:34:37;;;;;;;15.85;6.90;;;;;;;;;;5111555;28;20051;-84
2022/03/05 01:37:06;;;;;;;15.38;5.97;;;;;;;;;;5112298;28;20047;-84
2022/03/05 01:39:32;;;;;;;14.90;6.03;;;;;;;;;;5113264;28;20044;-85
2022/03/05 01:42:01;;;;;;;17.80;6.75;;;;;;;;;;5102828;28;20141;-85
2022/03/05 01:44:28;;;;;;;18.33;7.10;;;;;;;;;;5110722;28;20485;-85
2022/03/05 01:46:54;;;;;;;13.88;6.50;;;;;;;;;;5111510;28;20044;-85
2022/03/05 01:49:21;;;;;;;19.65;7.30;;;;;;;;;;5109651;28;20055;-85
2022/03/05 01:51:48;;;;;;;14.60;7.15;;;;;;;;;;5102232;28;20474;-85
2022/03/05 01:54:15;;;;;;;17.08;6.68;;;;;;;;;;5103570;27;20490;-85
2022/03/05 01:56:44;;;;;;;20.40;7.78;;;;;;;;;;5103322;27;20071;-85
2022/03/05 01:59:11;;;;;;;18.15;8.23;;;;;;;;;;5103887;28;20036;-85
2022/03/05 02:01:38;;;;;;;16.70;6.95;;;;;;;;;;5109232;28;20131;-85
2022/03/05 02:04:06;;;;;;;15.45;7.07;;;;;;;;;;5107875;28;20139;-85
2022/03/05 02:06:33;;;;;;;20.88;8.65;;;;;;;;;;5102851;28;20071;-85
2022/03/05 02:08:59;;;;;;;18.35;8.30;;;;;;;;;;5098973;28;20445;-85
2022/03/05 02:11:28;;;;;;;13.30;6.85;;;;;;;;;;5102698;28;20056;-85
2022/03/05 02:13:55;;;;;;;18.65;7.38;;;;;;;;;;5108955;28;20503;-85
2022/03/05 02:16:22;;;;;;;16.17;6.43;;;;;;;;;;5111168;28;20092;-85
2022/03/05 02:18:50;;;;;;;20.25;7.13;;;;;;;;;;5109647;28;20504;-84
2022/03/05 02:21:18;;;;;;;18.95;7.78;;;;;;;;;;5110248;28;20084;-85
2022/03/05 02:23:45;;;;;;;16.52;7.20;;;;;;;;;;5112443;28;20043;-86
2022/03/05 02:26:25;;;;;;;19.65;7.93;;;;;;;;;;5110325;28;20094;-85
2022/03/05 02:28:52;;;;;;;15.13;7.05;;;;;;;;;;5106221;28;20040;-85
2022/03/05 02:31:18;;;;;;;14.98;6.72;;;;;;;;;;5107906;28;20041;-85
2022/03/05 02:33:45;;;;;;;18.08;7.75;;;;;;;;;;5109713;28;20050;-85
2022/03/05 02:36:12;;;;;;;20.67;7.25;;;;;;;;;;5103757;28;20483;-85
2022/03/05 02:38:40;;;;;;;16.77;7.72;;;;;;;;;;5103546;28;20075;-85
2022/03/05 02:41:07;;;;;;;19.95;8.30;;;;;;;;;;5106258;28;20079;-85
2022/03/05 02:43:33;;;;;;;15.35;7.63;;;;;;;;;;5106900;28;20048;-85
2022/03/05 02:46:00;;;;;;;15.80;6.75;;;;;;;;;;5108085;28;20044;-85
2022/03/05 02:48:26;;;;;;;22.13;8.02;;;;;;;;;;5112736;28;20051;-85
2022/03/05 02:50:53;;;;;;;19.00;7.43;;;;;;;;;;5109270;28;20071;-85
2022/03/05 02:53:20;;;;;;;19.35;7.70;;;;;;;;;;5109892;28;20390;-85
2022/03/05 02:55:48;;;;;;;14.93;7.30;;;;;;;;;;5109181;28;20043;-85
2022/03/05 02:58:15;;;;;;;23.55;10.40;;;;;;;;;;5112578;27;20039;-85
2022/03/05 03:00:50;;;;;;;22.55;9.68;;;;;;;;;;5111018;27;20040;-85
2022/03/05 03:03:18;;;;;;;18.30;7.97;;;;;;;;;;5110866;28;20100;-85
2022/03/05 03:05:45;;;;;;;25.08;9.93;;;;;;;;;;5103927;28;20085;-84
2022/03/05 03:08:12;;;;;;;18.45;8.13;;;;;;;;;;5109359;28;20044;-85
2022/03/05 03:10:38;;;;;;;18.00;8.07;;;;;;;;;;5105193;28;20123;-85
2022/03/05 03:13:06;;;;;;;16.25;7.50;;;;;;;;;;5106915;27;20086;-84
2022/03/05 03:15:33;;;;;;;19.75;8.07;;;;;;;;;;5113561;27;20517;-85
2022/03/05 03:17:59;;;;;;;15.27;7.18;;;;;;;;;;5113025;28;20070;-85
2022/03/05 03:20:27;;;;;;;17.80;7.43;;;;;;;;;;5105892;28;20071;-85
2022/03/05 03:22:54;;;;;;;17.17;7.93;;;;;;;;;;5102320;28;20159;-85
2022/03/05 03:25:21;;;;;;;15.30;7.07;;;;;;;;;;5105205;28;20131;-85
2022/03/05 03:27:47;;;;;;;16.20;6.93;;;;;;;;;;5110855;27;20130;-85
2022/03/05 03:30:16;;;;;;;15.63;7.45;;;;;;;;;;5109897;28;20126;-85
2022/03/05 03:32:44;;;;;;;15.52;7.03;;;;;;;;;;5105227;28;20035;-84
2022/03/05 03:35:12;;;;;;;19.17;9.38;;;;;;;;;;5104090;28;20067;-85
2022/03/05 03:37:39;;;;;;;16.75;8.10;;;;;;;;;;5104236;28;20126;-84
2022/03/05 03:40:09;;;;;;;18.58;7.82;;;;;;;;;;5100590;28;20071;-84
2022/03/05 03:42:44;;;;;;;20.17;8.23;;;;;;;;;;5110575;27;20044;-85
2022/03/05 03:45:12;;;;;;;16.63;7.07;;;;;;;;;;5108158;27;20131;-84
2022/03/05 03:47:41;;;;;;;20.35;7.18;;;;;;;;;;5104737;28;20047;-84
2022/03/05 03:50:09;;;;;;;19.08;7.65;;;;;;;;;;5107831;28;20461;-84
2022/03/05 03:52:42;;;;;;;19.23;8.52;;;;;;;;;;5111226;27;20457;-85
2022/03/05 03:55:17;;;;;;;17.23;7.35;;;;;;;;;;5105924;27;20463;-84
2022/03/05 03:57:43;;;;;;;16.25;7.38;;;;;;;;;;5107828;27;20039;-84
2022/03/05 04:00:12;;;;;;;18.17;9.25;;;;;;;;;;5100098;28;20506;-84
2022/03/05 04:02:40;;;;;;;15.23;7.53;;;;;;;;;;5106911;27;20580;-85
2022/03/05 04:05:09;;;;;;;20.25;7.75;;;;;;;;;;5099876;28;20079;-85
2022/03/05 04:10:19;;;;;;;15.63;7.35;;;;;;;;;;5105670;27;20065;-84
2022/03/05 04:12:46;;;;;;;19.17;7.35;;;;;;;;;;5099285;28;20077;-85
2022/03/05 04:15:12;;;;;;;17.27;7.75;;;;;;;;;;5103094;28;20090;-85
2022/03/05 04:17:41;;;;;;;15.10;7.45;;;;;;;;;;5117907;27;20432;-85
2022/03/05 04:20:08;;;;;;;17.95;7.38;;;;;;;;;;5102391;27;20051;-85
2022/03/05 04:22:35;;;;;;;16.50;6.40;;;;;;;;;;5108211;27;20063;-85
2022/03/05 04:25:02;;;;;;;18.02;8.00;;;;;;;;;;5104116;28;20127;-85
2022/03/05 04:27:28;;;;;;;20.23;7.90;;;;;;;;;;5104182;28;20048;-85
2022/03/05 04:29:55;;;;;;;18.10;8.30;;;;;;;;;;5114975;28;20514;-84
2022/03/05 04:32:21;;;;;;;20.45;6.63;;;;;;;;;;5113840;28;20051;-84
2022/03/05 04:34:49;;;;;;;16.80;7.25;;;;;;;;;;5105119;28;20079;-84
2022/03/05 04:37:16;;;;;;;16.10;7.70;;;;;;;;;;5105771;28;20571;-84
2022/03/05 04:39:42;;;;;;;20.52;9.02;;;;;;;;;;5108152;28;20040;-85
2022/03/05 04:42:09;;;;;;;15.88;7.32;;;;;;;;;;5113473;28;20079;-85
2022/03/05 04:44:35;;;;;;;18.13;6.90;;;;;;;;;;5106402;28;20052;-84
2022/03/05 04:47:02;;;;;;;17.55;7.55;;;;;;;;;;5113350;28;20053;-84
2022/03/05 04:49:29;;;;;;;17.08;6.72;;;;;;;;;;5104479;28;20100;-84
2022/03/05 04:51:57;;;;;;;20.15;7.90;;;;;;;;;;5107905;28;20405;-85
2022/03/05 04:54:25;;;;;;;20.65;8.95;;;;;;;;;;5102285;28;20044;-85
2022/03/05 04:56:52;;;;;;;21.10;8.00;;;;;;;;;;5101817;28;20060;-85
2022/03/05 04:59:19;;;;;;;22.17;8.57;;;;;;;;;;5108328;28;20532;-85
2022/03/05 05:01:45;;;;;;;16.23;7.55;;;;;;;;;;5106103;28;20048;-85
2022/03/05 05:04:12;;;;;;;23.60;9.48;;;;;;;;;;5107049;28;20079;-85
2022/03/05 05:06:38;;;;;;;20.75;9.23;;;;;;;;;;5110193;28;20134;-85
2022/03/05 05:09:06;;;;;;;20.42;8.05;;;;;;;;;;5104711;28;20068;-84
2022/03/05 05:11:33;;;;;;;20.65;9.07;;;;;;;;;;5102645;28;20048;-84
2022/03/05 05:14:00;;;;;;;17.60;7.93;;;;;;;;;;5111274;28;20091;-84
2022/03/05 05:16:26;;;;;;;20.95;7.72;;;;;;;;;;5105831;28;20075;-84
2022/03/05 05:21:37;;;;;;;22.17;8.43;;;;;;;;;;5114596;28;20128;-84
2022/03/05 05:24:04;;;;;;;18.20;7.85;;;;;;;;;;5109866;28;20112;-84
2022/03/05 05:26:32;;;;;;;18.13;8.40;;;;;;;;;;5104345;28;20040;-84
2022/03/05 05:28:59;;;;;;;19.15;7.63;;;;;;;;;;5114174;27;20100;-84
2022/03/05 05:31:25;;;;;;;14.82;7.30;;;;;;;;;;5108696;28;20142;-84
2022/03/05 05:33:52;;;;;;;14.85;7.43;;;;;;;;;;5110257;28;20040;-84
2022/03/05 05:36:19;;;;;;;16.20;8.05;;;;;;;;;;5102922;28;20421;-84
2022/03/05 05:38:46;;;;;;;16.23;7.82;;;;;;;;;;5108268;27;20075;-85
2022/03/05 05:41:14;;;;;;;18.58;7.47;;;;;;;;;;5113526;28;20408;-85
2022/03/05 05:43:42;;;;;;;20.70;8.43;;;;;;;;;;5110604;27;20051;-85
2022/03/05 05:46:09;;;;;;;19.42;8.27;;;;;;;;;;5111633;28;20130;-85
2022/03/05 05:48:35;;;;;;;19.50;8.27;;;;;;;;;;5110718;28;20075;-85
2022/03/05 05:51:02;;;;;;;15.48;6.80;;;;;;;;;;5105440;28;20074;-85
2022/03/05 05:53:29;;;;;;;16.98;7.78;;;;;;;;;;5106753;28;20051;-85
2022/03/05 05:55:55;;;;;;;22.50;8.18;;;;;;;;;;5106408;28;20442;-85
2022/03/05 05:58:22;;;;;;;19.48;7.55;;;;;;;;;;5110713;27;20051;-84
2022/03/05 06:00:51;;;;;;;24.38;9.20;;;;;;;;;;5106857;28;20445;-84
2022/03/05 06:03:17;;;;;;;19.25;8.50;;;;;;;;;;5102446;28;20047;-84
2022/03/05 06:05:44;;;;;;;17.67;8.07;;;;;;;;;;5110010;28;20083;-84
2022/03/05 06:08:10;;;;;;;19.65;8.20;;;;;;;;;;5107153;28;20517;-84
2022/03/05 06:10:37;;;;;;;23.98;9.73;;;;;;;;;;5104748;28;20130;-85
2022/03/05 06:13:03;;;;;;;26.27;9.90;;;;;;;;;;5112376;27;20043;-85
2022/03/05 06:15:30;;;;;;;23.60;10.48;;;;;;;;;;5104525;28;20100;-84
2022/03/05 06:17:58;;;;;;;19.05;9.95;;;;;;;;;;5102838;28;20059;-85
2022/03/05 06:20:25;;;;;;;23.85;10.45;;;;;;;;;;5106964;28;20105;-85
2022/03/05 06:22:52;;;;;;;22.80;10.32;;;;;;;;;;5112941;28;20104;-85
2022/03/05 06:25:19;;;;;;;27.05;11.95;;;;;;;;;;5106013;28;20064;-85
2022/03/05 06:27:45;;;;;;;31.10;11.35;;;;;;;;;;5112029;28;20047;-85
2022/03/05 06:30:13;;;;;;;30.42;10.95;;;;;;;;;;5107296;28;20051;-85
2022/03/05 06:32:40;;;;;;;27.45;10.77;;;;;;;;;;5115158;28;20130;-85
2022/03/05 06:35:14;;;;;;;26.05;12.23;;;;;;;;;;5109453;28;20054;-85
2022/03/05 06:37:41;;;;;;;29.55;11.38;;;;;;;;;;5101382;28;20089;-85
2022/03/05 06:40:11;;;;;;;28.33;11.10;;;;;;;;;;5111667;28;20040;-85
2022/03/05 06:42:37;;;;;;;27.10;10.30;;;;;;;;;;5108521;28;20075;-85
2022/03/05 06:45:05;;;;;;;25.48;10.50;;;;;;;;;;5102194;28;20097;-85
2022/03/05 06:47:32;;;;;;;21.90;10.55;;;;;;;;;;5109353;28;20059;-85
2022/03/05 06:49:58;;;;;;;23.95;10.82;;;;;;;;;;5109154;28;20114;-85
2022/03/05 06:52:26;;;;;;;25.73;10.93;;;;;;;;;;5105166;28;20128;-85
2022/03/05 06:54:53;;;;;;;25.33;11.50;;;;;;;;;;5105886;28;20117;-85
2022/03/05 06:57:20;;;;;;;22.20;11.43;;;;;;;;;;5108143;28;20488;-85
2022/03/05 06:59:46;;;;;;;27.08;11.93;;;;;;;;;;5109162;28;20075;-85
2022/03/05 07:02:13;;;;;;;23.08;10.43;;;;;;;;;;5107377;28;20480;-85
2022/03/05 07:04:40;;;;;;;25.95;11.55;;;;;;;;;;5103708;28;20086;-85
2022/03/05 07:07:07;;;;;;;37.58;17.38;;;;;;;;;;5106992;28;20048;-85
2022/03/05 07:09:35;;;;;;;71.88;26.98;;;;;;;;;;5109075;28;20043;-85
2022/03/05 07:12:05;;;;;;;56.25;24.73;;;;;;;;;;5105531;28;20455;-85
2022/03/05 07:14:32;;;;;;;40.70;17.13;;;;;;;;;;5110185;28;20043;-86
2022/03/05 07:16:58;;;;;;;40.03;19.02;;;;;;;;;;5111061;28;20071;-86
2022/03/05 07:19:25;;;;;;;42.20;19.10;;;;;;;;;;5107502;28;20109;-85
2022/03/05 07:21:51;;;;;;;33.28;13.13;;;;;;;;;;5108871;28;20064;-85
2022/03/05 07:24:18;;;;;;;26.65;12.65;;;;;;;;;;5105403;28;20048;-86
2022/03/05 07:26:46;;;;;;;26.83;12.43;;;;;;;;;;5109325;28;20122;-86
2022/03/05 07:29:12;;;;;;;27.30;12.23;;;;;;;;;;5108180;28;20071;-85
2022/03/05 07:31:39;;;;;;;20.52;9.57;;;;;;;;;;5109448;28;20059;-86
2022/03/05 07:34:06;;;;;;;23.52;10.50;;;;;;;;;;5109955;28;20051;-86
2022/03/05 07:36:32;;;;;;;26.85;11.80;;;;;;;;;;5108797;28;20111;-86
2022/03/05 07:38:59;;;;;;;34.53;11.90;;;;;;;;;;5109807;28;20075;-86
2022/03/05 07:41:25;;;;;;;26.73;10.57;;;;;;;;;;5105509;28;20071;-85
2022/03/05 07:43:53;;;;;;;22.05;10.00;;;;;;;;;;5105027;28;20486;-85
2022/03/05 07:46:20;;;;;;;28.63;11.50;;;;;;;;;;5102537;28;20055;-86
2022/03/05 07:48:46;;;;;;;23.27;9.63;;;;;;;;;;5110336;28;20040;-85
2022/03/05 07:51:13;;;;;;;28.33;12.05;;;;;;;;;;5111100;28;20039;-86
2022/03/05 07:53:39;;;;;;;23.42;11.88;;;;;;;;;;5105036;28;20128;-86
2022/03/05 07:56:06;;;;;;;23.83;11.68;;;;;;;;;;5102045;28;20086;-86
2022/03/05 07:58:33;;;;;;;27.38;11.73;;;;;;;;;;5106883;28;20043;-86
2022/03/05 08:01:01;;;;;;;26.40;13.18;;;;;;;;;;5100078;28;20044;-86
2022/03/05 08:03:27;;;;;;;21.42;11.40;;;;;;;;;;5107619;28;20078;-86
2022/03/05 08:05:54;;;;;;;25.83;11.52;;;;;;;;;;5107768;28;20043;-86
2022/03/05 08:08:21;;;;;;;24.15;11.88;;;;;;;;;;5098660;28;20401;-86
2022/03/05 08:10:47;;;;;;;29.65;13.88;;;;;;;;;;5098848;28;20082;-86
2022/03/05 08:13:14;;;;;;;25.52;11.77;;;;;;;;;;5107471;27;20082;-86
2022/03/05 08:15:40;;;;;;;25.35;12.02;;;;;;;;;;5102135;28;20078;-86
2022/03/05 08:18:08;;;;;;;27.73;12.93;;;;;;;;;;5107944;28;20036;-86
2022/03/05 08:20:35;;;;;;;28.92;13.45;;;;;;;;;;5108733;28;20134;-85
2022/03/05 08:23:01;;;;;;;24.33;11.35;;;;;;;;;;5100585;28;20051;-86
2022/03/05 08:25:28;;;;;;;26.33;12.35;;;;;;;;;;5098798;28;20075;-86
2022/03/05 08:27:55;;;;;;;26.42;11.63;;;;;;;;;;5103254;28;20047;-86
2022/03/05 08:30:22;;;;;;;25.75;12.30;;;;;;;;;;5103634;28;20078;-86
2022/03/05 08:32:49;;;;;;;23.45;10.82;;;;;;;;;;5111856;28;20755;-86
2022/03/05 08:35:17;;;;;;;23.00;11.35;;;;;;;;;;5104693;28;20075;-86
2022/03/05 08:37:51;;;;;;;24.27;10.68;;;;;;;;;;5103754;28;20064;-86
2022/03/05 08:40:17;;;;;;;24.23;11.55;;;;;;;;;;5103273;28;20146;-86
2022/03/05 08:42:45;;;;;;;23.98;11.80;;;;;;;;;;5102572;28;20095;-86
2022/03/05 08:45:12;;;;;;;23.00;10.48;;;;;;;;;;5105855;28;20089;-86
2022/03/05 08:47:39;;;;;;;22.17;10.73;;;;;;;;;;5100545;28;20514;-87
2022/03/05 08:50:07;;;;;;;22.63;11.50;;;;;;;;;;5102046;28;20151;-86
2022/03/05 08:52:36;;;;;;;22.73;11.70;;;;;;;;;;5103537;28;20076;-86
2022/03/05 08:55:04;;;;;;;25.50;12.38;;;;;;;;;;5106784;27;20071;-84
2022/03/05 08:57:31;;;;;;;24.95;12.73;;;;;;;;;;5113705;28;20077;-84
2022/03/05 08:59:58;;;;;;;26.67;12.40;;;;;;;;;;5102994;28;20052;-84
2022/03/05 09:02:24;;;;;;;26.15;13.82;;;;;;;;;;5104869;28;20075;-84
2022/03/05 09:04:51;;;;;;;24.10;12.70;;;;;;;;;;5113031;28;20086;-86
2022/03/05 09:07:18;;;;;;;29.45;12.82;;;;;;;;;;5103499;28;20395;-87
2022/03/05 09:09:46;;;;;;;27.15;13.05;;;;;;;;;;5115705;27;20075;-84
2022/03/05 09:12:12;;;;;;;23.45;12.70;;;;;;;;;;5104709;28;20044;-84
2022/03/05 09:14:39;;;;;;;27.30;13.60;;;;;;;;;;5109654;27;20047;-84
2022/03/05 09:17:06;;;;;;;25.67;13.38;;;;;;;;;;5112042;28;20047;-85
2022/03/05 09:19:33;;;;;;;27.25;12.88;;;;;;;;;;5110272;28;20043;-86
2022/03/05 09:22:00;;;;;;;23.55;11.82;;;;;;;;;;5108333;28;20071;-86
2022/03/05 09:24:26;;;;;;;29.05;13.15;;;;;;;;;;5111095;28;20564;-86
2022/03/05 09:26:54;;;;;;;22.83;12.75;;;;;;;;;;5102001;28;20119;-86
2022/03/05 09:29:21;;;;;;;26.52;13.45;;;;;;;;;;5113174;27;20080;-86
2022/03/05 09:31:47;;;;;;;28.67;12.85;;;;;;;;;;5111315;28;20441;-86
2022/03/05 09:34:14;;;;;;;26.52;13.02;;;;;;;;;;5110770;28;20035;-84
2022/03/05 09:36:40;;;;;;;25.02;12.60;;;;;;;;;;5107258;28;20144;-86
2022/03/05 09:39:07;;;;;;;26.58;12.77;;;;;;;;;;5104432;28;20102;-86
2022/03/05 09:41:33;;;;;;;22.73;11.75;;;;;;;;;;5110599;28;20055;-87
2022/03/05 09:44:01;;;;;;;20.05;10.98;;;;;;;;;;5105463;28;20089;-86
2022/03/05 09:46:28;;;;;;;21.30;11.88;;;;;;;;;;5108016;28;20061;-86
2022/03/05 09:48:55;;;;;;;24.08;11.73;;;;;;;;;;5111057;28;20075;-86
2022/03/05 09:51:22;;;;;;;23.17;10.85;;;;;;;;;;5105349;28;20584;-86
2022/03/05 09:53:48;;;;;;;22.60;11.52;;;;;;;;;;5112551;27;20502;-86
2022/03/05 09:56:15;;;;;;;20.85;11.07;;;;;;;;;;5107607;28;20068;-84
2022/03/05 09:58:41;;;;;;;23.83;11.85;;;;;;;;;;5109630;27;20555;-84
2022/03/05 10:01:09;;;;;;;19.65;10.20;;;;;;;;;;5105101;28;20082;-84
2022/03/05 10:03:44;;;;;;;20.73;10.90;;;;;;;;;;5105877;28;20048;-85
2022/03/05 10:06:18;;;;;;;19.20;10.75;;;;;;;;;;5106799;28;20048;-86
2022/03/05 10:08:45;;;;;;;19.17;10.00;;;;;;;;;;5108250;27;20086;-86
2022/03/05 10:11:12;;;;;;;18.02;9.77;;;;;;;;;;5105819;28;20421;-86
2022/03/05 10:13:40;;;;;;;17.42;9.98;;;;;;;;;;5103625;27;20109;-84
2022/03/05 10:16:22;;;;;;;16.50;9.35;;;;;;;;;;5105303;27;20040;-84
2022/03/05 10:18:49;;;;;;;24.60;11.13;;;;;;;;;;5103610;28;20112;-84
2022/03/05 10:21:16;;;;;;;15.95;8.80;;;;;;;;;;5105854;27;20092;-84
2022/03/05 10:23:47;;;;;;;16.35;8.70;;;;;;;;;;5106999;27;20505;-84
2022/03/05 10:26:17;;;;;;;17.00;8.77;;;;;;;;;;5113887;28;20066;-86
2022/03/05 10:28:43;;;;;;;17.98;9.43;;;;;;;;;;5105550;28;20083;-85
2022/03/05 10:31:12;;;;;;;18.85;9.02;;;;;;;;;;5101789;27;20129;-85
2022/03/05 10:33:41;;;;;;;18.52;9.27;;;;;;;;;;5106946;28;20051;-86
2022/03/05 10:36:09;;;;;;;15.52;7.97;;;;;;;;;;5107064;28;20047;-85
2022/03/05 10:38:48;;;;;;;18.60;9.60;;;;;;;;;;5104587;28;20050;-86
2022/03/05 10:41:17;;;;;;;17.67;9.50;;;;;;;;;;5106881;28;20086;-86
2022/03/05 10:43:44;;;;;;;16.52;8.38;;;;;;;;;;5107687;27;20055;-84
2022/03/05 10:46:12;;;;;;;14.20;6.97;;;;;;;;;;5114087;28;20096;-85
2022/03/05 10:48:40;;;;;;;16.40;8.95;;;;;;;;;;5110948;28;20109;-84
2022/03/05 10:51:12;;;;;;;9.90;5.72;;;;;;;;;;5111611;28;20048;-84
2022/03/05 10:53:41;;;;;;;10.57;5.95;;;;;;;;;;5110631;28;20056;-84
2022/03/05 10:56:24;;;;;;;8.90;4.68;;;;;;;;;;5109409;28;20196;-84
2022/03/05 10:59:05;;;;;;;10.77;5.40;;;;;;;;;;5109495;28;20103;-86
2022/03/05 11:01:33;;;;;;;15.95;6.43;;;;;;;;;;5103288;28;20126;-86
2022/03/05 11:04:00;;;;;;;12.52;6.53;;;;;;;;;;5104274;28;20079;-86
2022/03/05 11:06:27;;;;;;;14.25;7.45;;;;;;;;;;5109301;28;20069;-87
2022/03/05 11:08:54;;;;;;;12.90;7.90;;;;;;;;;;5107642;28;20043;-86
2022/03/05 11:11:21;;;;;;;13.13;7.53;;;;;;;;;;5105636;28;20074;-84
2022/03/05 11:13:48;;;;;;;11.05;5.63;;;;;;;;;;5104036;28;20063;-84
2022/03/05 11:16:15;;;;;;;12.55;7.15;;;;;;;;;;5105045;27;20101;-84
2022/03/05 11:18:43;;;;;;;15.68;7.55;;;;;;;;;;5103460;28;20067;-85
2022/03/05 11:21:10;;;;;;;14.50;7.65;;;;;;;;;;5107876;28;20074;-84
2022/03/05 11:23:38;;;;;;;13.25;7.00;;;;;;;;;;5109908;28;20048;-85
2022/03/05 11:26:07;;;;;;;13.57;6.60;;;;;;;;;;5107178;28;20053;-84
2022/03/05 11:28:36;;;;;;;14.38;6.40;;;;;;;;;;5107792;28;20120;-84
2022/03/05 11:31:07;;;;;;;10.90;5.78;;;;;;;;;;5111177;28;20098;-84
2022/03/05 11:33:39;;;;;;;10.63;5.55;;;;;;;;;;5106627;28;20763;-85
2022/03/05 11:36:07;;;;;;;11.23;5.78;;;;;;;;;;5111086;27;20044;-84
2022/03/05 11:38:35;;;;;;;10.65;6.03;;;;;;;;;;5108266;28;20072;-85
2022/03/05 11:41:07;;;;;;;14.77;6.88;;;;;;;;;;5109084;27;20509;-85
2022/03/05 11:43:42;;;;;;;12.00;6.45;;;;;;;;;;5109659;27;20542;-85
2022/03/05 11:46:08;;;;;;;10.13;5.72;;;;;;;;;;5109676;28;20471;-85
2022/03/05 11:48:37;;;;;;;12.05;6.15;;;;;;;;;;5105079;28;20094;-85
2022/03/05 11:51:14;;;;;;;12.73;6.03;;;;;;;;;;5107880;27;20043;-85
2022/03/05 11:53:42;;;;;;;11.38;6.22;;;;;;;;;;5107682;28;20131;-85
2022/03/05 11:56:22;;;;;;;11.05;6.10;;;;;;;;;;5104575;28;20172;-86
2022/03/05 11:58:49;;;;;;;12.35;6.25;;;;;;;;;;5103378;27;20079;-85
2022/03/05 12:01:33;;;;;;;13.43;6.32;;;;;;;;;;5104868;28;20079;-85
2022/03/05 12:04:04;;;;;;;11.65;5.90;;;;;;;;;;5099199;28;20069;-85
2022/03/05 12:06:42;;;;;;;11.18;6.18;;;;;;;;;;5100087;28;20040;-85
2022/03/05 12:09:33;;;;;;;11.60;7.03;;;;;;;;;;5102173;28;20154;-84
2022/03/05 12:12:00;;;;;;;13.52;6.38;;;;;;;;;;5102151;28;20703;-86
2022/03/05 12:15:00;;;;;;;12.95;7.05;;;;;;;;;;5101156;28;20101;-85
2022/03/05 12:17:27;;;;;;;10.65;6.07;;;;;;;;;;5101028;28;20083;-85
2022/03/05 12:19:55;;;;;;;12.32;6.35;;;;;;;;;;5102517;27;20052;-85
2022/03/05 12:22:22;;;;;;;11.32;6.15;;;;;;;;;;5103830;28;20063;-84
2022/03/05 12:24:49;;;;;;;14.45;6.90;;;;;;;;;;5104130;28;20074;-85
2022/03/05 12:27:17;;;;;;;10.40;6.38;;;;;;;;;;5104824;28;21263;-85
2022/03/05 12:29:47;;;;;;;12.23;6.20;;;;;;;;;;5105085;28;20118;-85
2022/03/05 12:32:14;;;;;;;12.98;6.18;;;;;;;;;;5099886;28;20052;-85
2022/03/05 12:34:41;;;;;;;13.02;5.93;;;;;;;;;;5103481;28;20082;-85
2022/03/05 12:37:08;;;;;;;12.07;6.80;;;;;;;;;;5103762;28;20055;-85
2022/03/05 12:39:42;;;;;;;11.10;5.88;;;;;;;;;;5107559;28;20154;-85
2022/03/05 12:42:09;;;;;;;11.18;6.50;;;;;;;;;;5103777;28;20072;-84
2022/03/05 12:44:36;;;;;;;9.93;6.25;;;;;;;;;;5102681;28;20078;-84
2022/03/05 12:47:03;;;;;;;10.27;5.82;;;;;;;;;;5105258;28;20044;-85
2022/03/05 12:49:30;;;;;;;12.10;6.70;;;;;;;;;;5108660;28;20055;-84
2022/03/05 12:51:56;;;;;;;12.25;7.05;;;;;;;;;;5105837;28;20528;-84
2022/03/05 12:54:23;;;;;;;14.93;7.38;;;;;;;;;;5106556;28;20114;-85
2022/03/05 12:56:56;;;;;;;13.63;7.05;;;;;;;;;;5105541;28;20090;-85
2022/03/05 12:59:22;;;;;;;13.75;6.80;;;;;;;;;;5107873;28;20899;-85
2022/03/05 13:01:51;;;;;;;10.93;6.63;;;;;;;;;;5104390;28;20067;-85
2022/03/05 13:04:18;;;;;;;11.88;6.82;;;;;;;;;;5107074;28;20047;-85
2022/03/05 13:06:46;;;;;;;9.88;5.65;;;;;;;;;;5103460;28;20079;-85
2022/03/05 13:09:15;;;;;;;10.50;6.47;;;;;;;;;;5103350;28;20125;-85
2022/03/05 13:11:42;;;;;;;11.02;6.20;;;;;;;;;;5103617;28;20076;-85
2022/03/05 13:14:10;;;;;;;9.50;5.63;;;;;;;;;;5101201;28;20075;-85
2022/03/05 13:16:41;;;;;;;11.48;6.30;;;;;;;;;;5101108;28;20040;-85
2022/03/05 13:19:09;;;;;;;10.05;5.90;;;;;;;;;;5100862;28;20654;-85
2022/03/05 13:21:39;;;;;;;13.07;7.63;;;;;;;;;;5103134;28;20067;-85
2022/03/05 13:24:07;;;;;;;11.68;6.20;;;;;;;;;;5102238;28;20130;-86
2022/03/05 13:26:34;;;;;;;11.00;6.20;;;;;;;;;;5104956;28;20436;-85
2022/03/05 13:29:01;;;;;;;10.75;5.60;;;;;;;;;;5103339;28;20134;-85
2022/03/05 13:31:29;;;;;;;11.27;5.22;;;;;;;;;;5102803;28;20085;-85
2022/03/05 13:33:55;;;;;;;12.65;5.63;;;;;;;;;;5106742;28;20052;-85
2022/03/05 13:36:23;;;;;;;11.00;5.32;;;;;;;;;;5106537;28;20093;-85
2022/03/05 13:38:52;;;;;;;9.88;5.30;;;;;;;;;;5103160;28;20070;-85
2022/03/05 13:41:20;;;;;;;10.60;5.25;;;;;;;;;;5105429;28;20067;-86
2022/03/05 13:43:47;;;;;;;10.45;6.10;;;;;;;;;;5103627;27;20119;-86
2022/03/05 13:46:13;;;;;;;9.25;5.70;;;;;;;;;;5104763;28;20534;-85
2022/03/05 13:48:46;;;;;;;11.18;5.93;;;;;;;;;;5109115;28;20082;-85
2022/03/05 13:51:14;;;;;;;9.70;5.97;;;;;;;;;;5107992;28;20078;-85
2022/03/05 13:53:49;;;;;;;11.77;6.00;;;;;;;;;;5104918;28;20098;-86
2022/03/05 13:56:16;;;;;;;11.43;5.95;;;;;;;;;;5075826;28;20482;-86
2022/03/05 13:58:44;;;;;;;10.48;5.65;;;;;;;;;;5074394;28;20053;-86
2022/03/05 14:01:29;;;;;;;11.70;6.35;;;;;;;;;;5072650;28;20083;-86
2022/03/05 14:04:08;;;;;;;11.00;5.28;;;;;;;;;;5073211;28;20088;-86
2022/03/05 14:06:46;;;;;;;9.73;5.38;;;;;;;;;;5071849;28;20134;-86
2022/03/05 14:09:18;;;;;;;10.60;5.22;;;;;;;;;;5073380;28;20123;-85
2022/03/05 14:11:44;;;;;;;11.93;6.32;;;;;;;;;;5077188;28;20072;-85
2022/03/05 14:14:11;;;;;;;11.52;5.55;;;;;;;;;;5078263;28;20109;-85
2022/03/05 14:16:38;;;;;;;12.25;5.88;;;;;;;;;;5076349;28;20082;-85
2022/03/05 14:19:06;;;;;;;10.07;5.70;;;;;;;;;;5075441;28;20074;-85
2022/03/05 14:21:33;;;;;;;11.82;5.97;;;;;;;;;;5074541;28;20082;-85
2022/03/05 14:24:03;;;;;;;10.98;5.95;;;;;;;;;;5074216;28;20115;-85
2022/03/05 14:26:33;;;;;;;11.35;5.70;;;;;;;;;;5078883;28;20052;-85
2022/03/05 14:28:59;;;;;;;13.48;5.68;;;;;;;;;;5078061;28;20072;-86
2022/03/05 14:31:26;;;;;;;10.65;5.78;;;;;;;;;;5073133;28;20079;-86
2022/03/05 14:33:52;;;;;;;13.70;5.88;;;;;;;;;;5071320;28;20083;-86
2022/03/05 14:36:27;;;;;;;10.25;5.85;;;;;;;;;;5072988;28;20060;-85